• Join FlightAware (Why Join?)
  • Login
  • US Flag GB Flag 
06:46 EDT


 

Airport Tracker/Info


-or-


 

Live Flight TrackerFlight Track Log ✈ KAP169 ✈ 20-May-2013 ✈ KBOS - KRKD

Flight Track Log - Related Links

Times and Time Zones

All times are in EDT time to prevent confusion due to time zone crossing. See the KAP169 flight status page for this flight to view local times or setup timezone preferences in your user account.

Time Position Orientation Groundspeed Altitude Reporting Facility
EDT Latitude Longitude Course Direction KTS MPH feet Rate Location/Type
18:34 42.3833 -71.0000 340° North 104 120 500  Level KA90
18:35 42.4167 -71.0167 340° North 117 135 1,200 600 Climbing KA90
18:35 42.4500 -71.0167 360° North 118 136 1,700 480 Climbing KA90
18:36 42.4667 -71.0167 360° North 117 135 2,200 480 Climbing KA90
18:38 42.5167 -71.0167 360° North 120 138 2,800 480 Climbing KA90
18:39 42.5500 -71.0167 360° North 122 140 3,400 540 Climbing KA90
18:40 42.5833 -71.0167 360° North 120 138 4,100 600 Climbing KA90
18:41 42.6167 -71.0000 20° North 122 140 4,700 540 Climbing KA90
18:42 42.6500 -71.0000 360° North 123 142 5,100 540 Climbing KA90
18:43 42.6833 -70.9833 20° North 121 139 5,800 540 Climbing KA90
18:44 42.7167 -70.9667 20° North 118 136 6,400 480 Climbing KA90
18:45 42.7500 -70.9500 20° North 126 145 6,900 540 Climbing KA90
18:46 42.7667 -70.9167 56° Northeast 130 150 7,500 540 Climbing KA90
18:47 42.8000 -70.8667 48° Northeast 128 147 8,200 540 Climbing KA90
18:48 42.8167 -70.8500 36° Northeast 125 144 8,600 420 Climbing KA90
18:49 42.8500 -70.8167 36° Northeast 128 147 9,000 180 Climbing KA90
18:50 42.8667 -70.7833 56° Northeast 162 186 9,000  Level KA90
18:51 42.9167 -70.7167 44° Northeast 169 194 9,000  Level KA90
18:52 42.9500 -70.6667 48° Northeast 175 201 9,000  Level KA90
18:53 42.9833 -70.6333 36° Northeast 177 204 9,000  Level KA90
18:55 43.0359 -70.5604 45° Northeast  Level Estimated
19:02 43.2308 -70.2881 45° Northeast  Level Estimated
19:03 43.2586 -70.2491 46° Northeast  Level Estimated
19:04 43.2864 -70.2100 46° Northeast  Level Estimated
19:05 43.3141 -70.1709 46° Northeast  Level Estimated
19:06 43.3419 -70.1318 46° Northeast  Level Estimated
19:07 43.3696 -70.0926 46° Northeast  Level Estimated
19:08 43.3973 -70.0534 46° Northeast  Level Estimated
19:09 43.4250 -70.0142 46° Northeast  Level Estimated
19:10 43.4527 -69.9749 46° Northeast  Level Estimated
19:11 43.4804 -69.9355 46° Northeast  Level Estimated
19:12 43.5081 -69.8962 46° Northeast  Level Estimated
19:13 43.5357 -69.8568 46° Northeast  Level Estimated
19:14 43.5634 -69.8174 46° Northeast  Level Estimated
19:15 43.5910 -69.7779 46° Northeast  Level Estimated
19:16 43.6186 -69.7384 46° Northeast  Level Estimated
19:17 43.6462 -69.6989 46° Northeast  Level Estimated
19:18 43.6738 -69.6593 46° Northeast  Level Estimated
19:19 43.7014 -69.6197 46° Northeast  Level Estimated
19:20 43.7290 -69.5800 46° Northeast  Level Estimated
19:21 43.7565 -69.5404 46° Northeast  Level Estimated
19:22 43.7840 -69.5006 46° Northeast  Level Estimated
19:23 43.8116 -69.4609 46° Northeast  Level Estimated
19:24 43.8391 -69.4211 46° Northeast  Level Estimated
19:25 43.8666 -69.3813 46° Northeast  Level Estimated
19:26 43.8940 -69.3414 46° Northeast  Level Estimated